Colerain, OH (43916)

2:52 PM EDT on September 20, 2014 (GMT -0400)
Crawford Heights | Change Station
CLOSE
Current Station
Personal Weather Station
Location: Martins Ferry, OH
Elevation: 1109 ft
Nearby Weather Stations

Elev 1109 ft 40.09 °N, 80.75 °W | Updated 2 minutes ago

Mostly Cloudy
Mostly Cloudy
77.4 °F
Feels Like 79 °F
N
4.2
Wind Variable Wind from WNW

Today
High -- | Low -- °F
--% Chance of Precip.
Yesterday
High -- | Low -- °F
Precip. -- in
7:08 AM 7:23 PM
Waning Crescent, 11% visible
Pressure 30.06 in
Visibility 10.0 miles
Clouds Mostly Cloudy 3500 ft
Heat Index 79 °F
Dew Point 65 °F
Humidity 65%
Rainfall 0.00 in
Snow Depth Not available.
UV 4 out of 12
Pollen 4.40 out of 12
Air Quality Not available.
Flu Activity Not available.
METAR KHLG 201753Z 23011G19KT 10SM BKN035 24/16 A3007 RMK AO2 SLP179 T02440156 10244 20156 58021

More Conditions Fewer Conditions

Pressure 30.06 in
Visibility 10.0 miles
Clouds Mostly Cloudy 3500 ft
Heat Index 79 °F
Dew Point 65 °F
Humidity 65%
Rainfall 0.00 in
Snow Depth Not available.
UV 4 out of 12
Pollen 4.40 out of 12
Air Quality Not available.
Flu Activity Not available.
METAR KHLG 201753Z 23011G19KT 10SM BKN035 24/16 A3007 RMK AO2 SLP179 T02440156 10244 20156 58021

More Conditions Fewer Conditions

10-Day Weather Forecast

Almanac

Astronomy

Sep. 20, 2014 Rise Set
Actual Time 7:08 AM EDT 7:23 PM EDT
Civil Twilight 6:41 AM EDT 7:50 PM EDT
Nautical Twilight 6:09 AM EDT 8:22 PM EDT
Astronomical Twilight 5:37 AM EDT 8:54 PM EDT
Moon 3:46 AM EDT 5:26 PM EDT
Length of Visible Light 13h 08m
Length of Day
12h 14m
Tomorrow will be 2m 37s shorter.
Waning Crescent, 11% of the Moon is Illuminated
Today
Waning Crescent
Sep 24
New
Oct 1
First Quarter
Oct 8
Full
Oct 15
Last Quarter

Today's Extremes

State Highs State Lows

Community

WunderPhotos

Upload Photos

1,754,923 photos uploaded!

WunderBlogs® & News

Nearby

Snow Depth

Station Depth Elevation
No new snow has been reported.

Earthquake Activity

City Distance Mag. Time & Date
No recent earthquake activity has been reported nearby.
Minimum magnitude displayed is 2.5.

Coastal Water Temperatures

Place Temperature
No Stations Reporting

Nearby Weather Stations